createdAt,value
2022-09-22T00:05:17.777Z,11.50
2022-09-22T00:11:23.394Z,11.70
2022-09-22T00:17:25.619Z,11.70
2022-09-22T00:23:28.690Z,11.80
2022-09-22T00:29:31.325Z,11.90
2022-09-22T00:35:33.592Z,11.90
2022-09-22T00:41:40.818Z,11.90
2022-09-22T00:47:46.758Z,12.00
2022-09-22T00:53:49.226Z,12.00
2022-09-22T00:59:52.808Z,12.00
2022-09-22T01:05:57.722Z,12.00
2022-09-22T01:12:04.721Z,11.90
2022-09-22T01:18:20.214Z,11.80
2022-09-22T01:24:46.638Z,11.70
2022-09-22T01:31:18.789Z,11.60
2022-09-22T01:37:26.976Z,11.50
2022-09-22T01:43:34.807Z,11.30
2022-09-22T01:49:42.077Z,11.20
2022-09-22T01:55:55.617Z,11.20
2022-09-22T02:02:07.139Z,11.10
2022-09-22T02:08:13.557Z,11.10
2022-09-22T02:14:16.374Z,11.00
2022-09-22T02:20:19.839Z,10.90
2022-09-22T02:26:25.591Z,10.90
2022-09-22T02:32:29.571Z,10.80
2022-09-22T02:38:45.162Z,10.70
2022-09-22T02:44:56.915Z,10.70
2022-09-22T02:50:59.418Z,10.70
2022-09-22T02:57:01.585Z,10.60
2022-09-22T03:03:04.943Z,10.50
2022-09-22T03:09:07.233Z,10.50
2022-09-22T03:15:13.646Z,10.50
2022-09-22T03:21:15.892Z,10.40
2022-09-22T03:27:18.535Z,10.40
2022-09-22T03:33:20.892Z,10.40
2022-09-22T03:39:23.201Z,10.40
2022-09-22T03:45:25.274Z,10.30
2022-09-22T03:51:27.555Z,10.20
2022-09-22T03:57:30.450Z,10.30
2022-09-22T04:03:32.752Z,10.30
2022-09-22T04:09:35.163Z,10.30
2022-09-22T04:15:37.389Z,10.40
2022-09-22T04:21:39.893Z,10.40
2022-09-22T04:27:42.070Z,10.50
2022-09-22T04:33:44.224Z,10.80
2022-09-22T04:39:46.296Z,11.20
2022-09-22T04:45:49.106Z,13.20
2022-09-22T04:51:51.271Z,16.80
2022-09-22T04:57:55.804Z,20.70
2022-09-22T05:03:58.027Z,22.30
2022-09-22T05:10:00.272Z,22.80
2022-09-22T05:16:03.410Z,19.00
2022-09-22T05:22:05.778Z,16.80
2022-09-22T05:28:07.940Z,15.50
2022-09-22T05:34:10.243Z,15.20
2022-09-22T05:40:13.285Z,15.90
2022-09-22T05:46:15.534Z,24.50
2022-09-22T05:52:17.678Z,27.80
2022-09-22T05:58:20.845Z,29.60
2022-09-22T06:04:23.280Z,24.60
2022-09-22T06:10:25.667Z,23.20
2022-09-22T06:16:27.879Z,28.20
2022-09-22T06:22:30.131Z,31.60
2022-09-22T06:28:32.584Z,28.40
2022-09-22T06:34:36.033Z,27.00
2022-09-22T06:40:38.632Z,23.80
2022-09-22T06:46:40.761Z,22.90
2022-09-22T06:52:43.038Z,25.30
2022-09-22T06:59:08.129Z,30.50
2022-09-22T07:05:08.611Z,33.20
2022-09-22T07:11:11.155Z,33.00
2022-09-22T07:17:13.496Z,35.50
2022-09-22T07:23:21.297Z,34.90
2022-09-22T07:29:23.849Z,35.60
2022-09-22T07:35:28.810Z,35.20
2022-09-22T07:41:32.273Z,26.50
2022-09-22T07:48:06.709Z,24.50
2022-09-22T07:54:09.422Z,32.00
2022-09-22T08:00:12.284Z,33.70
2022-09-22T08:06:16.228Z,26.50
2022-09-22T08:12:18.552Z,24.60
2022-09-22T08:18:20.975Z,23.30
2022-09-22T08:24:24.021Z,22.60
2022-09-22T08:30:26.728Z,22.00
2022-09-22T08:36:29.148Z,22.10
2022-09-22T08:42:34.560Z,22.20
2022-09-22T08:48:56.811Z,22.00
2022-09-22T08:55:00.245Z,22.20
2022-09-22T09:01:28.752Z,23.10
2022-09-22T09:07:44.072Z,22.60
2022-09-22T09:14:17.247Z,20.70
2022-09-22T09:20:31.549Z,22.60
2022-09-22T09:26:36.935Z,24.50
2022-09-22T09:33:00.774Z,24.10
2022-09-22T09:39:13.438Z,24.00
2022-09-22T09:45:17.061Z,21.90
2022-09-22T09:51:20.167Z,20.70
2022-09-22T09:57:27.459Z,20.40
2022-09-22T10:03:33.736Z,21.50
2022-09-22T10:09:35.894Z,21.30
2022-09-22T10:15:41.134Z,23.40
2022-09-22T10:21:43.370Z,28.00
2022-09-22T10:28:13.803Z,25.50
2022-09-22T10:34:35.866Z,22.00
2022-09-22T10:40:41.270Z,20.80
2022-09-22T10:47:42.524Z,20.50
2022-09-22T10:53:53.231Z,19.80
2022-09-22T11:00:16.061Z,20.10
2022-09-22T11:07:10.179Z,21.20
2022-09-22T11:13:44.379Z,21.30
2022-09-22T11:20:03.135Z,20.60
2022-09-22T11:26:20.478Z,23.10
2022-09-22T11:32:44.236Z,27.60
2022-09-22T11:38:46.371Z,29.30
2022-09-22T11:44:54.151Z,29.90
2022-09-22T11:51:11.594Z,25.10
2022-09-22T11:57:24.124Z,29.10
2022-09-22T12:03:48.655Z,30.50
2022-09-22T12:10:23.481Z,30.70
2022-09-22T12:17:07.530Z,28.60
2022-09-22T12:23:28.980Z,24.00
2022-09-22T12:29:31.564Z,23.00
2022-09-22T12:35:34.499Z,22.00
2022-09-22T12:41:53.747Z,20.90
2022-09-22T12:47:58.230Z,20.20
2022-09-22T12:54:22.123Z,19.90
2022-09-22T13:00:39.938Z,19.50
2022-09-22T13:06:42.027Z,19.50
2022-09-22T13:13:04.489Z,19.60
2022-09-22T13:19:10.427Z,19.80
2022-09-22T13:25:21.851Z,19.60
2022-09-22T13:31:24.072Z,19.70
2022-09-22T13:37:26.519Z,19.90
2022-09-22T13:43:37.095Z,19.90
2022-09-22T13:49:54.285Z,20.10
2022-09-22T13:55:57.446Z,20.30
2022-09-22T14:02:06.718Z,20.00
2022-09-22T14:08:18.289Z,19.50
2022-09-22T14:14:27.665Z,19.20
2022-09-22T14:20:29.849Z,18.90
2022-09-22T14:26:39.206Z,18.80
2022-09-22T14:32:46.874Z,18.60
2022-09-22T14:39:05.469Z,18.50
2022-09-22T14:45:10.345Z,18.30
2022-09-22T14:51:16.285Z,18.20
2022-09-22T14:57:18.692Z,18.00
2022-09-22T15:03:27.325Z,17.90
2022-09-22T15:09:36.270Z,17.80
2022-09-22T15:15:49.116Z,17.90
2022-09-22T15:21:51.613Z,18.00
2022-09-22T15:27:53.807Z,17.90
2022-09-22T15:33:57.318Z,17.90
2022-09-22T15:40:00.947Z,17.90
2022-09-22T15:46:05.645Z,17.80
2022-09-22T15:52:10.413Z,17.70
2022-09-22T15:58:16.179Z,17.60
2022-09-22T16:04:20.404Z,17.50
2022-09-22T16:10:24.651Z,17.40
2022-09-22T16:16:29.758Z,17.30
2022-09-22T16:22:31.887Z,17.10
2022-09-22T16:28:34.100Z,17.10
2022-09-22T16:34:37.696Z,17.00
2022-09-22T16:40:40.054Z,17.00
2022-09-22T16:46:42.437Z,16.90
2022-09-22T16:52:44.475Z,16.90
2022-09-22T16:58:46.809Z,17.00
2022-09-22T17:04:48.871Z,16.90
2022-09-22T17:10:51.831Z,16.70
2022-09-22T17:16:56.923Z,16.40
2022-09-22T17:22:59.323Z,16.20
2022-09-22T17:29:01.898Z,15.80
2022-09-22T17:35:04.477Z,15.50
2022-09-22T17:41:08.107Z,15.20
2022-09-22T17:47:28.804Z,14.70
2022-09-22T17:53:49.566Z,14.30
2022-09-22T17:59:52.630Z,13.90
2022-09-22T18:05:54.752Z,13.60
2022-09-22T18:11:57.011Z,13.50
2022-09-22T18:17:59.191Z,13.50
2022-09-22T18:24:01.510Z,13.60
2022-09-22T18:30:05.291Z,13.60
2022-09-22T18:36:07.576Z,13.50
2022-09-22T18:42:11.896Z,13.40
2022-09-22T18:48:17.652Z,13.40
2022-09-22T18:54:22.429Z,13.30
2022-09-22T19:00:25.595Z,13.20
2022-09-22T19:06:27.858Z,13.10
2022-09-22T19:12:39.786Z,13.10
2022-09-22T19:18:42.194Z,13.00
2022-09-22T19:24:46.422Z,13.00
2022-09-22T19:30:48.481Z,13.00
2022-09-22T19:36:50.453Z,12.80
2022-09-22T19:42:54.008Z,12.80
2022-09-22T19:48:57.325Z,12.90
2022-09-22T19:54:59.679Z,12.80
2022-09-22T20:01:01.884Z,12.70
2022-09-22T20:07:04.078Z,12.70
2022-09-22T20:13:26.143Z,12.70
2022-09-22T20:19:31.701Z,12.70
2022-09-22T20:25:33.819Z,12.80
2022-09-22T20:31:36.523Z,12.90
2022-09-22T20:37:39.513Z,13.10
2022-09-22T20:43:41.458Z,13.20
2022-09-22T20:49:46.860Z,13.30
2022-09-22T20:56:05.822Z,13.50
2022-09-22T21:02:07.782Z,13.60
2022-09-22T21:08:28.283Z,13.70
2022-09-22T21:14:33.754Z,13.70
2022-09-22T21:20:35.884Z,13.70
2022-09-22T21:26:38.208Z,13.80
2022-09-22T21:32:40.465Z,13.80
2022-09-22T21:38:54.402Z,13.90
2022-09-22T21:44:56.475Z,14.00
2022-09-22T21:51:06.790Z,14.00
2022-09-22T21:57:08.741Z,13.90
2022-09-22T22:03:29.267Z,13.90
2022-09-22T22:09:31.480Z,13.80
2022-09-22T22:15:34.509Z,13.60
2022-09-22T22:21:36.981Z,13.50
2022-09-22T22:27:39.678Z,13.40
2022-09-22T22:33:43.050Z,13.30
2022-09-22T22:39:45.536Z,13.20
2022-09-22T22:45:48.366Z,13.10
2022-09-22T22:51:52.481Z,13.00
2022-09-22T22:57:54.638Z,13.00
2022-09-22T23:04:00.215Z,12.90
2022-09-22T23:10:11.687Z,13.00
2022-09-22T23:16:14.373Z,13.00
2022-09-22T23:22:16.683Z,12.90
2022-09-22T23:28:18.732Z,12.90
2022-09-22T23:34:22.366Z,12.80
2022-09-22T23:40:24.760Z,12.80
2022-09-22T23:46:27.134Z,12.60
2022-09-22T23:52:29.294Z,12.50
2022-09-22T23:58:31.850Z,12.50
